Bruce Crossing, Michigan
Current Conditions -  °F | °C
As of 9:35 PM on Thursday 20 Nov 2014 (Local Time) from KLNL Reporting Station
Light Snow Light Snow  
Wind Chill:   Ceiling: 3400
Heat Index: 10°   Visibility: 3mi
Dew Point:   Wind: 5mph
Humidity: 83%   Direction: 290°WNW
Pressure: 30.06"   Gusts: NA
Location:  46.53°N, 89.18°W
Report Text: KLNL 210235Z AUTO 29004KT 3SM -SN SCT024 OVC034 M12/M14 A3006 RMK AO2 T11211144
Loading
Personal Weather Stations






























Interactive Weather Map New forecast layout! Learn more

10-Day Weather Forecast

Advertisements
Track Severe Weather on mobile